Time;durP1;ratioP1;P1;durP2;ratioP2;P2;SDS_P1;SDS_P2;PMS_P1;PMS_P2;Temp;Humidity;BMP_temperature;BMP_pressure;BME280_temperature;BME280_humidity;BME280_pressure;Samples;Min_cycle;Max_cycle;Signal;HPM_P1;HPM_P2
2021/12/07 00:01:21;;;;;;;4.35;1.35;;;2.10;81.50;;;;;;5047384;28;20490;-76
2021/12/07 00:03:47;;;;;;;2.65;1.20;;;2.10;81.90;;;;;;5061425;28;20152;-76
2021/12/07 00:06:13;;;;;;;2.20;1.13;;;2.10;82.10;;;;;;5049804;28;20104;-76
2021/12/07 00:08:42;;;;;;;3.20;1.20;;;2.10;82.00;;;;;;5051828;28;20021;-76
2021/12/07 00:11:10;;;;;;;2.17;0.90;;;2.00;82.60;;;;;;5054615;28;20494;-76
2021/12/07 00:13:38;;;;;;;2.67;1.27;;;1.80;83.10;;;;;;5052826;28;20044;-76
2021/12/07 00:16:06;;;;;;;3.05;1.23;;;1.80;83.20;;;;;;5059402;28;20378;-76
2021/12/07 00:18:32;;;;;;;2.72;1.20;;;1.90;82.90;;;;;;5053284;28;20029;-75
2021/12/07 00:20:58;;;;;;;3.00;1.10;;;1.90;83.00;;;;;;5054192;28;20392;-75
2021/12/07 00:23:24;;;;;;;2.88;1.10;;;1.90;82.70;;;;;;5059684;28;20036;-76
2021/12/07 00:25:50;;;;;;;5.32;1.25;;;1.90;83.40;;;;;;5062296;28;20037;-76
2021/12/07 00:28:19;;;;;;;3.03;1.35;;;2.00;82.70;;;;;;5052520;28;20379;-76
2021/12/07 00:30:45;;;;;;;2.40;1.02;;;1.80;82.80;;;;;;5052485;28;20021;-76
2021/12/07 00:33:29;;;;;;;2.75;1.15;;;1.70;83.30;;;;;;5051610;28;20045;-76
2021/12/07 00:35:55;;;;;;;3.97;1.40;;;1.70;83.30;;;;;;5060266;28;20017;-76
2021/12/07 00:38:24;;;;;;;3.03;1.23;;;1.60;83.90;;;;;;5057345;28;20033;-75
2021/12/07 00:40:52;;;;;;;2.15;1.00;;;1.80;83.20;;;;;;5060914;28;20606;-76
2021/12/07 00:43:18;;;;;;;4.43;1.48;;;1.90;83.30;;;;;;5060547;28;20036;-75
2021/12/07 00:45:45;;;;;;;2.67;1.10;;;1.70;82.80;;;;;;5057802;28;20045;-75
2021/12/07 00:48:15;;;;;;;4.32;0.98;;;1.80;83.30;;;;;;5040810;28;20426;-76
2021/12/07 00:50:44;;;;;;;3.55;1.35;;;1.70;83.00;;;;;;5069510;28;20517;-76
2021/12/07 00:53:11;;;;;;;4.28;1.20;;;1.60;83.20;;;;;;5064770;28;20075;-76
2021/12/07 00:55:44;;;;;;;2.33;1.08;;;1.70;83.60;;;;;;5052435;28;20032;-76
2021/12/07 00:58:17;;;;;;;3.15;1.42;;;1.70;82.90;;;;;;5052170;28;20088;-76
2021/12/07 01:00:44;;;;;;;3.63;1.02;;;1.40;83.60;;;;;;5053729;28;20120;-75
2021/12/07 01:03:09;;;;;;;2.72;1.13;;;1.40;83.80;;;;;;5048882;28;20029;-75
2021/12/07 01:05:36;;;;;;;3.38;1.10;;;1.50;83.40;;;;;;5053225;28;20037;-76
2021/12/07 01:26:59;;;;;;;2.20;0.93;;;1.70;83.30;;;;;;5059632;28;20051;-76
2021/12/07 01:29:27;;;;;;;3.97;1.10;;;1.80;83.10;;;;;;5068000;28;20467;-76
2021/12/07 01:32:48;;;;;;;2.30;1.00;;;1.80;83.30;;;;;;5051242;28;20032;-75
2021/12/07 01:47:58;;;;;;;3.15;1.27;;;1.70;84.20;;;;;;5054026;28;20506;-75
2021/12/07 02:00:51;;;;;;;3.67;1.02;;;1.20;84.80;;;;;;5049036;28;20032;-76
2021/12/07 02:03:18;;;;;;;4.32;1.23;;;1.20;86.00;;;;;;5048168;28;20043;-75
2021/12/07 02:05:44;;;;;;;2.42;1.00;;;1.10;86.20;;;;;;5048488;28;20035;-75
2021/12/07 02:08:10;;;;;;;2.65;1.20;;;1.20;85.90;;;;;;5051091;28;20029;-75
2021/12/07 02:10:36;;;;;;;1.85;0.80;;;1.20;85.60;;;;;;5048938;28;20033;-76
2021/12/07 02:13:19;;;;;;;2.03;0.75;;;1.10;86.20;;;;;;5053699;28;20505;-76
2021/12/07 02:15:45;;;;;;;2.20;1.13;;;1.10;86.90;;;;;;5053710;28;20025;-76
2021/12/07 02:18:11;;;;;;;3.00;1.00;;;1.10;86.00;;;;;;5051799;28;20556;-75
2021/12/07 02:20:37;;;;;;;3.30;0.90;;;1.10;86.80;;;;;;5060547;28;20032;-75
2021/12/07 02:23:02;;;;;;;4.55;1.35;;;0.90;86.30;;;;;;5059236;28;20021;-75
2021/12/07 02:25:28;;;;;;;3.38;0.95;;;0.90;86.50;;;;;;5051957;28;20029;-75
2021/12/07 02:27:55;;;;;;;2.97;1.00;;;0.90;86.20;;;;;;5052050;28;20143;-75
2021/12/07 02:30:23;;;;;;;2.17;1.13;;;1.00;86.90;;;;;;5051407;28;20067;-75
2021/12/07 02:32:52;;;;;;;1.73;0.90;;;0.80;86.70;;;;;;5063418;28;20036;-75
2021/12/07 02:35:25;;;;;;;2.33;0.88;;;0.80;86.80;;;;;;5067893;28;20036;-75
2021/12/07 02:37:52;;;;;;;3.50;1.70;;;0.90;86.30;;;;;;5055525;28;20082;-76
2021/12/07 02:40:18;;;;;;;1.52;0.73;;;0.80;86.50;;;;;;5057315;28;20021;-75
2021/12/07 02:42:44;;;;;;;2.78;0.85;;;0.90;85.80;;;;;;5052646;28;20025;-75
2021/12/07 02:45:11;;;;;;;2.40;0.95;;;1.10;85.00;;;;;;5066359;28;20053;-76
2021/12/07 02:47:37;;;;;;;2.50;1.10;;;1.20;84.80;;;;;;5063857;28;20086;-76
2021/12/07 02:50:05;;;;;;;1.90;1.05;;;1.10;85.40;;;;;;5058023;28;20020;-75
2021/12/07 02:52:31;;;;;;;1.77;0.80;;;1.10;85.30;;;;;;5055261;28;20033;-76
2021/12/07 02:54:57;;;;;;;2.00;0.85;;;1.10;85.20;;;;;;5059588;28;20033;-75
2021/12/07 02:57:23;;;;;;;3.60;1.52;;;1.10;86.30;;;;;;5049626;28;20438;-75
2021/12/07 03:00:01;;;;;;;3.17;0.88;;;0.90;86.90;;;;;;5049512;28;20025;-76
2021/12/07 03:02:27;;;;;;;6.00;1.20;;;0.80;86.10;;;;;;5065025;28;20395;-75
2021/12/07 03:05:06;;;;;;;3.08;0.93;;;0.70;86.70;;;;;;5058243;28;20625;-76
2021/12/07 03:26:28;;;;;;;3.40;1.00;;;-0.10;89.80;;;;;;5057271;28;20035;-75
2021/12/07 03:28:57;;;;;;;2.40;1.00;;;0.30;88.90;;;;;;5068427;28;20373;-75
2021/12/07 03:31:26;;;;;;;2.50;1.08;;;0.30;88.50;;;;;;5067785;28;20028;-75
2021/12/07 03:33:53;;;;;;;4.10;1.42;;;0.20;88.40;;;;;;5053803;28;20139;-75
2021/12/07 03:36:20;;;;;;;3.15;1.00;;;0.30;89.00;;;;;;5061240;28;20557;-75
2021/12/07 03:38:46;;;;;;;1.73;0.85;;;0.50;87.10;;;;;;5065226;28;20364;-75
2021/12/07 03:41:12;;;;;;;2.38;1.08;;;0.50;87.30;;;;;;5068547;28;20074;-75
2021/12/07 03:43:39;;;;;;;3.22;0.90;;;0.60;86.30;;;;;;5060286;28;20035;-76
2021/12/07 03:46:06;;;;;;;2.63;1.00;;;0.70;86.10;;;;;;5068652;28;20041;-75
2021/12/07 03:48:31;;;;;;;2.92;1.08;;;0.80;86.40;;;;;;5070322;28;20074;-76
2021/12/07 03:50:57;;;;;;;2.58;1.02;;;0.60;86.50;;;;;;5067797;28;20028;-75
2021/12/07 03:53:23;;;;;;;1.98;1.10;;;0.60;86.70;;;;;;5053397;28;20094;-75
2021/12/07 03:55:49;;;;;;;1.83;0.70;;;0.60;86.80;;;;;;5060880;28;20032;-74
2021/12/07 03:58:15;;;;;;;3.10;1.15;;;0.60;87.00;;;;;;5062244;28;20482;-76
2021/12/07 04:00:44;;;;;;;3.78;0.90;;;0.60;86.60;;;;;;5059718;28;20033;-74
2021/12/07 04:03:12;;;;;;;2.00;1.05;;;0.40;87.10;;;;;;5051709;28;20155;-74
2021/12/07 04:05:45;;;;;;;2.15;1.13;;;0.40;87.10;;;;;;5043041;28;20041;-74
2021/12/07 04:08:12;;;;;;;1.02;0.65;;;0.50;86.80;;;;;;5045986;28;20025;-74
2021/12/07 04:10:38;;;;;;;2.78;0.88;;;0.50;87.30;;;;;;5043010;28;20033;-74
2021/12/07 04:13:04;;;;;;;2.17;0.93;;;0.50;86.30;;;;;;5044641;28;21032;-74
2021/12/07 04:15:30;;;;;;;0.65;0.43;;;0.60;86.20;;;;;;5046198;28;20036;-74
2021/12/07 04:17:56;;;;;;;2.42;0.90;;;0.50;86.50;;;;;;5045949;28;20060;-74
2021/12/07 04:20:21;;;;;;;2.72;0.80;;;0.50;86.70;;;;;;5051617;28;20039;-74
2021/12/07 04:22:47;;;;;;;2.72;1.30;;;0.50;86.40;;;;;;5045835;28;20028;-74
2021/12/07 04:25:15;;;;;;;2.90;1.08;;;0.50;87.90;;;;;;5046951;28;20070;-74
2021/12/07 04:27:41;;;;;;;2.85;1.13;;;0.40;86.90;;;;;;5058672;28;20024;-74
2021/12/07 04:30:26;;;;;;;1.60;0.70;;;0.40;88.00;;;;;;5059197;28;20642;-74
2021/12/07 04:32:52;;;;;;;2.13;1.00;;;0.40;87.00;;;;;;5050472;28;20076;-74
2021/12/07 04:35:18;;;;;;;2.63;0.93;;;0.20;88.00;;;;;;5048946;28;20051;-74
2021/12/07 04:37:44;;;;;;;2.90;1.00;;;0.20;88.40;;;;;;5046529;28;20581;-74
2021/12/07 04:40:15;;;;;;;1.73;0.80;;;0.30;88.10;;;;;;5060995;28;20033;-75
2021/12/07 04:42:41;;;;;;;2.80;0.98;;;0.40;87.60;;;;;;5045957;28;20247;-74
2021/12/07 04:45:10;;;;;;;5.80;1.70;;;0.30;88.40;;;;;;5047404;28;20041;-74
2021/12/07 04:58:34;;;;;;;;;;;0.10;88.20;;;;;;5046542;28;20481;-75
2021/12/07 05:01:06;;;;;;;1.65;0.98;;;0.00;88.60;;;;;;5045642;28;19943;-74
2021/12/07 05:03:32;;;;;;;0.80;0.50;;;0.00;88.50;;;;;;5041709;28;20036;-74
2021/12/07 05:05:58;;;;;;;1.85;0.70;;;0.00;88.60;;;;;;5047705;28;20033;-74
2021/12/07 05:08:37;;;;;;;1.70;0.82;;;0.00;88.60;;;;;;5050532;28;20025;-74
2021/12/07 05:13:36;;;;;;;2.30;0.90;;;0.00;88.10;;;;;;5054686;28;20051;-74
2021/12/07 05:40:16;;;;;;;2.67;1.25;;;0.10;88.10;;;;;;5042354;28;20079;-74
2021/12/07 05:42:42;;;;;;;1.80;0.90;;;0.30;87.40;;;;;;5042657;28;20037;-74
2021/12/07 05:45:15;;;;;;;3.67;0.90;;;0.20;88.30;;;;;;5043455;28;20057;-74
2021/12/07 05:47:41;;;;;;;1.90;0.82;;;0.10;88.40;;;;;;5044446;28;20415;-74
2021/12/07 05:50:10;;;;;;;2.38;1.05;;;0.20;89.20;;;;;;5053819;28;20064;-74
2021/12/07 05:52:36;;;;;;;3.13;0.98;;;0.00;89.60;;;;;;5046657;28;20120;-74
2021/12/07 05:55:02;;;;;;;3.15;0.85;;;-0.10;89.50;;;;;;5050703;28;20111;-74
2021/12/07 05:57:27;;;;;;;3.03;1.08;;;-0.30;89.70;;;;;;5053290;28;20118;-74
2021/12/07 05:59:53;;;;;;;1.73;0.73;;;-0.20;90.00;;;;;;5045470;28;20458;-74
2021/12/07 06:02:19;;;;;;;2.08;0.60;;;-0.10;90.00;;;;;;5041663;28;20902;-74
2021/12/07 06:04:45;;;;;;;3.22;1.20;;;-0.20;89.60;;;;;;5040422;28;20072;-74
2021/12/07 06:07:10;;;;;;;1.63;0.80;;;0.00;88.70;;;;;;5040508;28;20384;-74
2021/12/07 06:09:37;;;;;;;2.42;0.77;;;0.00;89.40;;;;;;5050686;28;20048;-74
2021/12/07 06:12:03;;;;;;;1.90;0.73;;;0.00;88.50;;;;;;5048949;28;20037;-74
2021/12/07 06:14:33;;;;;;;2.22;0.93;;;-0.10;88.70;;;;;;5049964;28;20037;-74
2021/12/07 06:16:59;;;;;;;5.25;1.10;;;0.00;88.40;;;;;;5044360;28;20025;-74
2021/12/07 06:19:25;;;;;;;1.33;0.80;;;0.00;89.40;;;;;;5042970;28;20090;-74
2021/12/07 06:21:51;;;;;;;2.92;1.05;;;-0.10;89.50;;;;;;5043649;28;20029;-74
2021/12/07 06:24:17;;;;;;;4.18;0.77;;;-0.10;88.50;;;;;;5048859;28;20594;-74
2021/12/07 06:26:42;;;;;;;2.33;1.30;;;0.00;88.10;;;;;;5045652;28;20029;-74
2021/12/07 06:29:08;;;;;;;2.55;0.85;;;-0.20;89.00;;;;;;5060824;28;20501;-74
2021/12/07 06:31:34;;;;;;;1.73;0.80;;;-0.10;88.60;;;;;;5044470;28;20032;-74
2021/12/07 06:34:01;;;;;;;2.67;1.00;;;-0.20;88.90;;;;;;5044382;28;20037;-74
2021/12/07 06:36:27;;;;;;;2.47;0.90;;;-0.20;89.30;;;;;;5057787;28;20036;-74
2021/12/07 06:38:52;;;;;;;2.10;0.65;;;-0.30;90.00;;;;;;5054972;28;20379;-74
2021/12/07 06:41:18;;;;;;;1.52;0.70;;;-0.30;89.70;;;;;;5059635;28;20036;-74
2021/12/07 06:43:44;;;;;;;1.85;0.80;;;-0.20;90.00;;;;;;5048990;28;20033;-74
2021/12/07 06:46:10;;;;;;;2.83;0.77;;;-0.40;90.20;;;;;;5043658;28;20399;-74
2021/12/07 06:48:35;;;;;;;1.30;0.73;;;-0.30;89.90;;;;;;5053520;28;20032;-74
2021/12/07 06:51:02;;;;;;;2.05;0.90;;;-0.30;90.00;;;;;;5062335;28;20053;-74
2021/12/07 06:53:35;;;;;;;2.25;0.90;;;-0.40;89.30;;;;;;5044019;28;20506;-74
2021/12/07 06:56:02;;;;;;;2.22;1.02;;;-0.30;89.80;;;;;;5045147;28;20379;-74
2021/12/07 06:58:28;;;;;;;2.38;0.93;;;-0.40;89.80;;;;;;5051656;28;20032;-74
2021/12/07 07:00:53;;;;;;;2.15;0.85;;;-0.40;89.80;;;;;;5060597;28;20036;-74
2021/12/07 07:03:19;;;;;;;3.85;1.48;;;-0.40;89.70;;;;;;5044241;28;20421;-74
2021/12/07 07:05:45;;;;;;;6.18;2.15;;;-0.30;90.10;;;;;;5048663;28;20037;-74
2021/12/07 07:08:11;;;;;;;2.80;1.23;;;-0.30;90.20;;;;;;5059312;28;20029;-74
2021/12/07 07:10:37;;;;;;;2.17;0.98;;;-0.30;89.70;;;;;;5059067;28;20113;-74
2021/12/07 07:13:03;;;;;;;2.65;0.98;;;-0.20;89.50;;;;;;5047157;28;20504;-74
2021/12/07 07:15:29;;;;;;;2.08;0.75;;;-0.20;89.10;;;;;;5050626;28;20104;-74
2021/12/07 07:17:54;;;;;;;1.73;0.80;;;-0.10;88.70;;;;;;5048948;28;20994;-73
2021/12/07 07:20:21;;;;;;;2.58;0.95;;;0.00;88.10;;;;;;5061445;28;20021;-74
2021/12/07 07:22:47;;;;;;;2.95;0.90;;;0.00;88.60;;;;;;5055307;28;20028;-75
2021/12/07 07:25:13;;;;;;;0.93;0.50;;;0.00;89.50;;;;;;5051063;28;20444;-74
2021/12/07 07:27:39;;;;;;;3.00;1.08;;;0.00;89.90;;;;;;5047344;28;20037;-74
2021/12/07 07:30:09;;;;;;;2.70;0.88;;;-0.10;88.30;;;;;;5047211;28;20048;-74
2021/12/07 07:32:35;;;;;;;2.60;1.17;;;0.10;88.80;;;;;;5064051;28;20497;-74
2021/12/07 07:35:01;;;;;;;2.63;1.08;;;0.00;88.70;;;;;;5052394;28;20025;-74
2021/12/07 07:37:26;;;;;;;3.60;0.73;;;0.00;89.50;;;;;;5049277;28;20028;-74
2021/12/07 07:39:52;;;;;;;4.23;1.33;;;-0.10;88.50;;;;;;5050632;28;20033;-74
2021/12/07 07:42:18;;;;;;;2.95;0.93;;;-0.10;89.80;;;;;;5057213;28;20124;-74
2021/12/07 07:44:44;;;;;;;1.50;0.70;;;-0.20;90.00;;;;;;5045944;28;20073;-75
2021/12/07 07:47:10;;;;;;;3.40;1.25;;;-0.50;90.50;;;;;;5052668;28;20113;-74
2021/12/07 07:49:36;;;;;;;2.53;1.00;;;-0.30;89.40;;;;;;5049573;28;20056;-75
2021/12/07 07:52:01;;;;;;;2.20;0.65;;;-0.20;88.90;;;;;;5052110;28;20098;-76
2021/12/07 07:54:28;;;;;;;1.80;0.70;;;-0.10;88.90;;;;;;5048552;28;20297;-76
2021/12/07 07:56:54;;;;;;;1.77;0.73;;;-0.10;89.00;;;;;;5049846;28;20077;-76
2021/12/07 07:59:20;;;;;;;3.33;0.90;;;0.00;88.30;;;;;;5045089;28;20032;-75
2021/12/07 08:01:46;;;;;;;2.33;0.90;;;0.00;88.20;;;;;;5052881;28;20037;-75
2021/12/07 08:04:11;;;;;;;3.05;0.90;;;0.10;87.90;;;;;;5046709;28;20021;-73
2021/12/07 08:06:37;;;;;;;3.13;0.77;;;0.20;88.60;;;;;;5055907;28;20025;-73
2021/12/07 08:09:05;;;;;;;1.80;0.95;;;0.10;88.80;;;;;;5050401;28;20009;-75
2021/12/07 08:11:32;;;;;;;1.13;0.70;;;0.10;88.70;;;;;;5044120;28;20033;-75
2021/12/07 08:13:58;;;;;;;3.92;0.90;;;0.30;89.90;;;;;;5047036;28;20089;-75
2021/12/07 08:16:24;;;;;;;1.85;0.80;;;0.20;88.40;;;;;;5060958;28;20475;-74
2021/12/07 08:18:52;;;;;;;1.35;0.60;;;0.00;88.90;;;;;;5052697;28;20029;-75
2021/12/07 08:21:18;;;;;;;2.40;0.85;;;0.10;88.00;;;;;;5042451;28;20024;-75
2021/12/07 08:23:44;;;;;;;2.90;1.00;;;0.10;88.30;;;;;;5049952;28;20249;-75
2021/12/07 08:26:13;;;;;;;2.35;0.85;;;0.20;88.40;;;;;;5027576;28;20032;-75
2021/12/07 08:28:39;;;;;;;3.00;0.85;;;0.10;88.10;;;;;;5050588;28;20604;-74
2021/12/07 08:31:05;;;;;;;3.10;1.25;;;0.10;88.30;;;;;;5058322;28;20064;-74
2021/12/07 08:33:31;;;;;;;1.90;1.10;;;0.10;89.10;;;;;;5043761;28;20068;-75
2021/12/07 08:35:59;;;;;;;2.65;0.98;;;0.20;87.80;;;;;;5042477;28;20025;-75
2021/12/07 08:38:25;;;;;;;1.75;0.73;;;0.20;89.00;;;;;;5047438;28;20024;-74
2021/12/07 08:40:54;;;;;;;1.40;0.85;;;0.10;88.70;;;;;;5047518;28;20135;-74
2021/12/07 08:43:23;;;;;;;2.88;1.10;;;0.10;89.20;;;;;;5049169;28;20399;-75
2021/12/07 08:45:50;;;;;;;3.07;1.20;;;0.10;89.10;;;;;;5048169;28;20479;-75
2021/12/07 08:48:17;;;;;;;3.55;1.08;;;0.10;88.10;;;;;;5044831;28;20090;-75
2021/12/07 08:50:44;;;;;;;2.10;0.93;;;0.20;89.30;;;;;;5045058;28;20720;-76
2021/12/07 08:53:12;;;;;;;2.13;0.90;;;0.20;87.20;;;;;;5042890;28;20032;-74
2021/12/07 09:01:19;;;;;;;1.50;1.20;;;0.20;86.70;;;;;;5028178;28;20068;-77
2021/12/07 09:03:46;;;;;;;1.63;0.77;;;0.30;86.70;;;;;;5040585;28;20039;-76
2021/12/07 09:06:13;;;;;;;2.67;1.20;;;0.30;87.50;;;;;;5048629;28;20039;-75
2021/12/07 09:08:40;;;;;;;3.45;0.98;;;0.40;88.90;;;;;;5044792;28;20029;-74
2021/12/07 09:11:06;;;;;;;1.77;1.00;;;0.30;87.90;;;;;;5044218;28;20728;-72
2021/12/07 09:13:33;;;;;;;1.90;1.00;;;0.20;89.70;;;;;;5043278;28;20561;-72
2021/12/07 09:15:58;;;;;;;1.95;1.05;;;0.10;89.80;;;;;;5026270;28;20031;-73
2021/12/07 09:18:26;;;;;;;3.63;1.13;;;0.20;90.10;;;;;;5044552;28;20032;-73
2021/12/07 09:20:52;;;;;;;6.55;2.03;;;0.10;90.20;;;;;;5047389;28;20804;-73
2021/12/07 09:23:18;;;;;;;6.53;1.60;;;0.10;90.20;;;;;;5046750;28;20490;-73
2021/12/07 09:25:44;;;;;;;3.47;1.27;;;0.00;89.80;;;;;;5057353;28;20120;-73
2021/12/07 09:28:11;;;;;;;2.17;1.02;;;0.00;90.40;;;;;;5042987;28;20027;-73
2021/12/07 09:30:38;;;;;;;18.30;8.65;;;0.00;90.40;;;;;;5041936;28;20094;-73
2021/12/07 09:33:04;;;;;;;9.73;3.13;;;0.10;90.00;;;;;;5041918;28;20048;-73
2021/12/07 09:35:31;;;;;;;7.47;3.55;;;0.10;89.80;;;;;;5041675;28;20059;-73
2021/12/07 09:37:57;;;;;;;4.93;2.30;;;0.20;89.50;;;;;;5044546;28;20056;-73
2021/12/07 09:40:24;;;;;;;5.80;1.85;;;0.10;90.20;;;;;;5057857;28;20071;-72
2021/12/07 09:42:52;;;;;;;3.00;1.30;;;0.10;90.10;;;;;;5063182;28;20028;-73
2021/12/07 09:45:19;;;;;;;1.65;0.93;;;0.20;90.00;;;;;;5058464;28;20888;-74
2021/12/07 09:47:46;;;;;;;2.70;0.93;;;0.00;90.50;;;;;;5055842;28;20116;-73
2021/12/07 09:50:15;;;;;;;2.20;1.10;;;0.00;89.90;;;;;;5043027;28;20048;-73
2021/12/07 09:52:44;;;;;;;4.47;1.00;;;0.20;89.60;;;;;;5042955;28;20037;-73
2021/12/07 09:55:10;;;;;;;2.40;1.03;;;0.20;89.10;;;;;;5047514;28;20039;-73
2021/12/07 09:57:36;;;;;;;2.42;0.80;;;0.10;88.10;;;;;;5049040;28;20043;-73
2021/12/07 10:00:05;;;;;;;5.43;2.20;;;0.30;87.90;;;;;;5043053;28;20115;-73
2021/12/07 10:02:31;;;;;;;2.97;1.08;;;0.30;88.50;;;;;;5043008;28;20036;-74
2021/12/07 10:04:57;;;;;;;3.20;1.30;;;0.30;87.70;;;;;;5042710;28;20094;-73
2021/12/07 10:07:22;;;;;;;2.53;1.10;;;0.40;87.70;;;;;;5043295;28;20414;-74
2021/12/07 10:09:48;;;;;;;3.70;1.20;;;0.50;87.40;;;;;;5045887;28;20029;-73
2021/12/07 10:12:19;;;;;;;2.30;0.85;;;0.60;87.90;;;;;;5056549;28;20033;-73
2021/12/07 10:14:45;;;;;;;2.65;0.90;;;0.50;88.00;;;;;;5039796;28;20029;-73
2021/12/07 10:17:11;;;;;;;2.47;1.00;;;0.40;88.30;;;;;;5052054;28;20955;-73
2021/12/07 10:19:42;;;;;;;5.25;1.67;;;0.50;88.30;;;;;;5050515;28;20029;-73
2021/12/07 10:22:15;;;;;;;8.85;4.13;;;0.60;88.50;;;;;;5041857;28;20021;-73
2021/12/07 10:24:47;;;;;;;6.88;2.97;;;0.60;88.30;;;;;;5043684;28;20502;-73
2021/12/07 10:27:29;;;;;;;5.70;2.50;;;0.50;88.90;;;;;;5046442;28;20547;-73
2021/12/07 10:29:56;;;;;;;9.45;3.38;;;0.60;89.50;;;;;;5048595;28;20037;-73
2021/12/07 10:32:21;;;;;;;6.18;2.28;;;0.60;89.60;;;;;;5040108;28;20041;-73
2021/12/07 10:34:47;;;;;;;2.63;1.02;;;0.70;89.80;;;;;;5049001;28;20025;-73
2021/12/07 10:37:17;;;;;;;4.35;1.15;;;0.60;90.30;;;;;;5041254;28;20463;-73
2021/12/07 10:39:52;;;;;;;2.67;1.17;;;0.60;90.10;;;;;;5046468;28;20036;-73
2021/12/07 10:42:29;;;;;;;4.65;1.50;;;0.60;90.00;;;;;;5042419;28;20395;-72
2021/12/07 10:44:59;;;;;;;3.05;1.65;;;1.00;90.30;;;;;;5052812;28;20049;-73
2021/12/07 10:47:25;;;;;;;5.25;1.40;;;1.00;88.90;;;;;;5043023;28;20040;-73
2021/12/07 10:49:53;;;;;;;4.22;1.73;;;1.10;88.90;;;;;;5047268;28;20598;-73
2021/12/07 10:52:29;;;;;;;3.05;1.20;;;1.20;88.40;;;;;;5063912;28;20910;-73
2021/12/07 10:55:17;;;;;;;8.07;2.38;;;1.40;88.50;;;;;;5063595;28;20036;-73
2021/12/07 10:57:52;;;;;;;5.07;1.60;;;1.50;87.60;;;;;;5054306;28;20424;-73
2021/12/07 11:00:23;;;;;;;5.00;1.50;;;1.70;87.00;;;;;;5045391;28;20039;-72
2021/12/07 11:02:56;;;;;;;3.88;1.42;;;1.80;85.60;;;;;;5045962;28;20021;-73
2021/12/07 11:06:04;;;;;;;3.55;1.45;;;2.00;86.40;;;;;;5052784;28;20038;-73
2021/12/07 11:08:33;;;;;;;3.13;1.30;;;2.00;85.60;;;;;;4985490;28;20041;-73
2021/12/07 11:10:59;;;;;;;4.53;1.42;;;2.10;85.10;;;;;;5037401;28;20632;-72
2021/12/07 11:13:35;;;;;;;3.88;1.70;;;2.20;84.60;;;;;;5050542;28;20075;-73
2021/12/07 11:16:06;;;;;;;4.00;1.30;;;2.10;85.00;;;;;;5057079;28;20024;-73
2021/12/07 11:18:39;;;;;;;3.90;1.60;;;2.30;85.80;;;;;;5058327;28;20025;-74
2021/12/07 11:21:07;;;;;;;7.18;1.92;;;2.50;85.60;;;;;;5048180;28;20033;-74
2021/12/07 11:23:37;;;;;;;8.15;1.50;;;2.40;84.40;;;;;;5050358;28;20486;-72
2021/12/07 11:31:55;;;;;;;3.65;1.42;;;3.10;84.00;;;;;;5053240;28;20113;-74
2021/12/07 11:34:30;;;;;;;4.03;2.28;;;3.00;84.00;;;;;;5050036;28;20032;-74
2021/12/07 11:37:12;;;;;;;3.05;1.63;;;2.90;83.20;;;;;;5047387;28;20032;-74
2021/12/07 11:39:51;;;;;;;4.53;1.50;;;3.00;83.60;;;;;;5051792;28;20465;-75
2021/12/07 11:42:22;;;;;;;4.40;1.60;;;3.00;83.10;;;;;;5059214;28;20021;-74
2021/12/07 11:44:55;;;;;;;2.65;1.23;;;3.10;83.20;;;;;;5047358;28;20124;-75
2021/12/07 11:47:30;;;;;;;4.05;1.60;;;3.10;82.80;;;;;;5047502;28;20032;-74
2021/12/07 11:50:09;;;;;;;6.93;1.80;;;3.20;83.30;;;;;;5050218;28;20585;-73
2021/12/07 11:52:34;;;;;;;4.25;1.30;;;3.30;83.20;;;;;;5049322;28;20041;-73
2021/12/07 11:55:00;;;;;;;6.10;2.30;;;3.30;83.10;;;;;;5049159;28;20040;-74
2021/12/07 11:57:26;;;;;;;4.05;1.42;;;3.30;83.00;;;;;;5049388;28;20033;-74
2021/12/07 11:59:52;;;;;;;4.32;1.50;;;3.60;84.10;;;;;;5050216;28;20028;-74
2021/12/07 12:02:18;;;;;;;2.22;1.00;;;3.90;82.30;;;;;;5049469;28;20598;-73
2021/12/07 12:04:45;;;;;;;4.45;1.10;;;3.70;81.00;;;;;;5054322;28;20035;-73
2021/12/07 12:07:11;;;;;;;3.65;1.35;;;4.00;81.50;;;;;;5069533;28;20020;-73
2021/12/07 12:09:48;;;;;;;3.30;1.23;;;4.10;80.90;;;;;;5053739;28;20036;-73
2021/12/07 12:12:20;;;;;;;3.50;1.20;;;4.30;81.10;;;;;;5049279;28;20027;-73
2021/12/07 12:15:16;;;;;;;5.95;1.35;;;4.30;81.00;;;;;;5049339;28;20021;-73
2021/12/07 12:18:08;;;;;;;14.40;5.60;;;4.30;80.90;;;;;;5069330;28;20520;-71
2021/12/07 12:20:57;;;;;;;19.55;7.93;;;3.90;80.10;;;;;;5051071;28;20422;-73
2021/12/07 12:23:50;;;;;;;6.53;1.83;;;3.90;80.10;;;;;;5049083;28;20040;-73
2021/12/07 12:26:22;;;;;;;13.40;5.97;;;4.00;80.10;;;;;;5064642;28;20047;-73
2021/12/07 12:28:49;;;;;;;4.25;1.52;;;3.90;80.40;;;;;;5047911;28;20028;-73
2021/12/07 12:31:17;;;;;;;3.05;1.30;;;3.90;80.60;;;;;;5051784;28;20017;-73
2021/12/07 12:33:53;;;;;;;3.42;1.58;;;4.00;80.60;;;;;;5047116;28;20101;-73
2021/12/07 12:36:23;;;;;;;2.70;1.20;;;3.90;79.50;;;;;;5047883;28;20040;-73
2021/12/07 12:39:01;;;;;;;5.13;1.75;;;3.80;80.10;;;;;;5050801;28;20520;-73
2021/12/07 12:41:28;;;;;;;4.70;1.42;;;3.80;81.00;;;;;;5057482;28;20378;-73
2021/12/07 12:44:15;;;;;;;4.07;1.52;;;4.00;80.90;;;;;;5047075;28;20104;-73
2021/12/07 12:46:41;;;;;;;4.80;1.60;;;4.00;81.90;;;;;;5057084;28;20127;-73
2021/12/07 12:49:11;;;;;;;6.07;1.80;;;4.00;81.50;;;;;;5068523;28;20028;-73
2021/12/07 12:51:49;;;;;;;6.20;1.73;;;4.20;81.90;;;;;;5052040;28;20025;-73
2021/12/07 12:54:16;;;;;;;3.28;1.70;;;4.30;81.40;;;;;;5048134;28;20032;-73
2021/12/07 12:56:42;;;;;;;7.22;1.80;;;4.20;81.20;;;;;;5050085;28;20637;-73
2021/12/07 12:59:10;;;;;;;4.65;2.10;;;4.30;81.00;;;;;;5065049;28;20029;-73
2021/12/07 13:01:41;;;;;;;4.60;1.58;;;4.40;81.10;;;;;;5046968;28;20052;-73
2021/12/07 13:04:22;;;;;;;4.97;1.88;;;4.30;80.80;;;;;;5047075;28;20029;-73
2021/12/07 13:07:02;;;;;;;25.73;17.80;;;4.10;79.80;;;;;;5048517;28;20067;-73
2021/12/07 13:09:41;;;;;;;5.15;2.75;;;4.20;81.60;;;;;;5047574;28;20368;-73
2021/12/07 13:12:18;;;;;;;4.47;1.73;;;4.30;80.10;;;;;;5046669;28;20091;-73
2021/12/07 13:14:49;;;;;;;4.45;2.13;;;4.20;80.30;;;;;;5046331;28;20025;-74
2021/12/07 13:17:32;;;;;;;13.95;12.35;;;4.20;80.30;;;;;;5047644;28;20029;-73
2021/12/07 13:20:17;;;;;;;5.70;4.07;;;4.30;80.80;;;;;;5047613;28;20029;-73
2021/12/07 13:22:50;;;;;;;7.28;2.83;;;4.40;80.80;;;;;;5047801;28;20033;-74
2021/12/07 13:25:18;;;;;;;4.47;1.93;;;4.30;80.20;;;;;;5049882;28;20020;-74
2021/12/07 13:28:02;;;;;;;4.22;1.38;;;4.30;81.10;;;;;;5065256;28;20040;-73
2021/12/07 13:30:52;;;;;;;9.48;2.35;;;4.20;80.20;;;;;;5045896;28;20107;-73
2021/12/07 13:33:34;;;;;;;6.03;1.60;;;4.20;79.90;;;;;;5052535;28;20040;-74
2021/12/07 13:36:21;;;;;;;3.90;1.20;;;4.10;79.30;;;;;;5047183;28;20021;-73
2021/12/07 13:38:46;;;;;;;2.80;1.13;;;4.10;79.80;;;;;;5060388;28;20025;-74
2021/12/07 13:41:15;;;;;;;3.00;1.00;;;4.20;80.00;;;;;;5048611;28;20037;-74
2021/12/07 13:43:48;;;;;;;5.07;1.80;;;4.20;79.10;;;;;;5047230;28;20043;-73
2021/12/07 13:46:20;;;;;;;5.25;1.60;;;4.20;79.50;;;;;;5046579;28;20141;-73
2021/12/07 13:48:50;;;;;;;4.07;1.52;;;4.20;79.60;;;;;;5060657;28;20100;-73
2021/12/07 13:51:18;;;;;;;3.58;1.55;;;4.30;81.40;;;;;;5066782;28;20643;-73
2021/12/07 13:53:45;;;;;;;3.85;1.40;;;4.40;79.60;;;;;;5060335;28;20047;-73
2021/12/07 13:56:12;;;;;;;5.07;1.85;;;4.30;79.70;;;;;;5045530;28;20040;-73
2021/12/07 13:58:57;;;;;;;3.33;1.33;;;4.30;79.50;;;;;;5053901;28;20035;-74
2021/12/07 14:01:25;;;;;;;4.10;2.50;;;4.30;79.90;;;;;;5051106;28;20471;-73
2021/12/07 14:03:51;;;;;;;7.18;6.20;;;4.40;81.30;;;;;;5053712;28;20028;-73
2021/12/07 14:06:17;;;;;;;6.10;1.70;;;4.50;81.00;;;;;;5047254;28;20021;-73
2021/12/07 14:08:43;;;;;;;2.67;1.30;;;4.50;80.20;;;;;;5047208;28;20032;-74
2021/12/07 14:11:15;;;;;;;2.45;1.15;;;4.30;80.80;;;;;;5046821;28;20020;-73
2021/12/07 14:13:44;;;;;;;4.13;1.30;;;4.30;81.20;;;;;;5030550;28;20037;-73
2021/12/07 14:16:12;;;;;;;6.00;1.60;;;4.30;81.40;;;;;;5046922;28;20025;-73
2021/12/07 14:18:41;;;;;;;3.88;1.85;;;4.40;80.90;;;;;;5058775;28;20027;-73
2021/12/07 14:21:07;;;;;;;2.65;1.20;;;4.30;80.70;;;;;;5048055;28;20029;-73
2021/12/07 14:23:57;;;;;;;4.70;2.08;;;4.30;81.00;;;;;;5057558;28;20033;-73
2021/12/07 14:26:25;;;;;;;3.67;1.80;;;4.40;81.10;;;;;;5066813;28;20521;-74
2021/12/07 14:28:56;;;;;;;7.65;2.75;;;4.40;83.40;;;;;;5057869;28;20021;-73
2021/12/07 14:31:28;;;;;;;3.95;2.22;;;4.40;82.00;;;;;;5051147;28;20041;-73
2021/12/07 14:34:02;;;;;;;4.40;1.95;;;4.20;81.60;;;;;;5050241;28;20064;-73
2021/12/07 14:36:39;;;;;;;3.78;1.88;;;4.10;82.00;;;;;;5050810;28;20025;-73
2021/12/07 14:39:11;;;;;;;3.03;1.70;;;4.10;81.70;;;;;;5036683;28;20466;-73
2021/12/07 14:41:45;;;;;;;3.35;1.48;;;4.00;81.60;;;;;;5052030;28;20025;-73
2021/12/07 14:44:16;;;;;;;4.90;2.35;;;3.90;81.70;;;;;;5046960;28;20086;-75
2021/12/07 14:46:44;;;;;;;3.42;1.85;;;3.80;81.20;;;;;;5047923;28;20487;-73
2021/12/07 14:49:11;;;;;;;4.22;1.80;;;3.70;81.50;;;;;;5047744;28;20028;-73
2021/12/07 14:51:37;;;;;;;3.30;1.40;;;3.50;84.10;;;;;;5049291;28;20041;-73
2021/12/07 14:54:04;;;;;;;6.32;1.65;;;3.40;84.90;;;;;;5050663;28;20045;-73
2021/12/07 14:56:32;;;;;;;3.08;1.30;;;3.30;84.30;;;;;;5050118;28;20521;-73